sensor_id;sensor_type;location;lat;lon;timestamp;temperature;humidity
40153;DHT22;26371;56.992;23.912;2022-07-29T00:01:44;15.70;99.90
40153;DHT22;26371;56.992;23.912;2022-07-29T00:04:13;15.80;99.90
40153;DHT22;26371;56.992;23.912;2022-07-29T00:06:44;15.80;99.90
40153;DHT22;26371;56.992;23.912;2022-07-29T00:09:14;15.80;99.90
40153;DHT22;26371;56.992;23.912;2022-07-29T00:11:42;15.80;99.90
40153;DHT22;26371;56.992;23.912;2022-07-29T00:14:12;15.80;99.90
40153;DHT22;26371;56.992;23.912;2022-07-29T00:16:41;15.70;99.90
40153;DHT22;26371;56.992;23.912;2022-07-29T00:19:10;15.80;99.90
40153;DHT22;26371;56.992;23.912;2022-07-29T00:21:39;15.70;99.90
40153;DHT22;26371;56.992;23.912;2022-07-29T00:24:10;15.80;99.90
40153;DHT22;26371;56.992;23.912;2022-07-29T00:26:40;15.80;99.90
40153;DHT22;26371;56.992;23.912;2022-07-29T00:29:09;15.80;99.90
40153;DHT22;26371;56.992;23.912;2022-07-29T00:31:58;15.80;99.90
40153;DHT22;26371;56.992;23.912;2022-07-29T00:34:27;15.60;99.90
40153;DHT22;26371;56.992;23.912;2022-07-29T00:37:14;15.60;99.90
40153;DHT22;26371;56.992;23.912;2022-07-29T00:39:44;15.70;99.90
40153;DHT22;26371;56.992;23.912;2022-07-29T00:42:13;15.60;99.90
40153;DHT22;26371;56.992;23.912;2022-07-29T00:44:43;15.60;99.90
40153;DHT22;26371;56.992;23.912;2022-07-29T00:47:12;15.60;99.90
40153;DHT22;26371;56.992;23.912;2022-07-29T00:49:42;15.50;99.90
40153;DHT22;26371;56.992;23.912;2022-07-29T00:52:12;15.50;99.90
40153;DHT22;26371;56.992;23.912;2022-07-29T00:54:45;15.40;99.90
40153;DHT22;26371;56.992;23.912;2022-07-29T00:57:14;15.40;99.90
40153;DHT22;26371;56.992;23.912;2022-07-29T00:59:43;15.40;99.90
40153;DHT22;26371;56.992;23.912;2022-07-29T01:02:12;15.40;99.90
40153;DHT22;26371;56.992;23.912;2022-07-29T01:04:41;15.40;99.90
40153;DHT22;26371;56.992;23.912;2022-07-29T01:07:10;15.40;99.90
40153;DHT22;26371;56.992;23.912;2022-07-29T01:09:39;15.50;99.90
40153;DHT22;26371;56.992;23.912;2022-07-29T01:12:16;15.50;99.90
40153;DHT22;26371;56.992;23.912;2022-07-29T01:14:47;15.60;99.90
40153;DHT22;26371;56.992;23.912;2022-07-29T01:17:21;15.60;99.90
40153;DHT22;26371;56.992;23.912;2022-07-29T01:19:58;15.60;99.90
40153;DHT22;26371;56.992;23.912;2022-07-29T01:22:49;15.60;99.90
40153;DHT22;26371;56.992;23.912;2022-07-29T01:25:49;15.60;99.90
40153;DHT22;26371;56.992;23.912;2022-07-29T01:28:51;15.70;99.90
40153;DHT22;26371;56.992;23.912;2022-07-29T01:31:28;15.70;99.90
40153;DHT22;26371;56.992;23.912;2022-07-29T01:34:08;15.70;99.90
40153;DHT22;26371;56.992;23.912;2022-07-29T01:36:45;15.70;99.90
40153;DHT22;26371;56.992;23.912;2022-07-29T01:39:19;15.70;99.90
40153;DHT22;26371;56.992;23.912;2022-07-29T01:41:58;15.60;99.90
40153;DHT22;26371;56.992;23.912;2022-07-29T01:44:34;15.60;99.90
40153;DHT22;26371;56.992;23.912;2022-07-29T01:47:10;15.60;99.90
40153;DHT22;26371;56.992;23.912;2022-07-29T01:49:46;15.60;99.90
40153;DHT22;26371;56.992;23.912;2022-07-29T01:57:06;15.60;99.90
40153;DHT22;26371;56.992;23.912;2022-07-29T01:59:38;15.60;99.90
40153;DHT22;26371;56.992;23.912;2022-07-29T02:02:10;15.60;99.90
40153;DHT22;26371;56.992;23.912;2022-07-29T02:05:09;15.60;99.90
40153;DHT22;26371;56.992;23.912;2022-07-29T02:07:40;15.60;99.90
40153;DHT22;26371;56.992;23.912;2022-07-29T02:10:11;15.60;99.90
40153;DHT22;26371;56.992;23.912;2022-07-29T02:12:42;15.60;99.90
40153;DHT22;26371;56.992;23.912;2022-07-29T02:15:19;15.60;99.90
40153;DHT22;26371;56.992;23.912;2022-07-29T02:17:52;15.60;99.90
40153;DHT22;26371;56.992;23.912;2022-07-29T02:20:23;15.50;99.90
40153;DHT22;26371;56.992;23.912;2022-07-29T02:22:55;15.50;99.90
40153;DHT22;26371;56.992;23.912;2022-07-29T02:25:26;15.60;99.90
40153;DHT22;26371;56.992;23.912;2022-07-29T02:28:05;15.60;99.90
40153;DHT22;26371;56.992;23.912;2022-07-29T02:30:40;15.60;99.90
40153;DHT22;26371;56.992;23.912;2022-07-29T02:33:39;15.60;99.90
40153;DHT22;26371;56.992;23.912;2022-07-29T02:36:09;15.60;99.90
40153;DHT22;26371;56.992;23.912;2022-07-29T02:38:41;15.50;99.90
40153;DHT22;26371;56.992;23.912;2022-07-29T02:41:23;15.50;99.90
40153;DHT22;26371;56.992;23.912;2022-07-29T02:47:23;15.50;99.90
40153;DHT22;26371;56.992;23.912;2022-07-29T02:50:00;15.50;99.90
40153;DHT22;26371;56.992;23.912;2022-07-29T02:52:41;15.50;99.90
40153;DHT22;26371;56.992;23.912;2022-07-29T02:55:28;15.60;99.90
40153;DHT22;26371;56.992;23.912;2022-07-29T02:58:08;15.60;99.90
40153;DHT22;26371;56.992;23.912;2022-07-29T03:00:45;15.50;99.90
40153;DHT22;26371;56.992;23.912;2022-07-29T03:03:21;15.50;99.90
40153;DHT22;26371;56.992;23.912;2022-07-29T03:06:01;15.50;99.90
40153;DHT22;26371;56.992;23.912;2022-07-29T03:08:31;15.40;99.90
40153;DHT22;26371;56.992;23.912;2022-07-29T03:11:01;15.50;99.90
40153;DHT22;26371;56.992;23.912;2022-07-29T03:17:14;15.50;99.90
40153;DHT22;26371;56.992;23.912;2022-07-29T03:19:45;15.60;99.90
40153;DHT22;26371;56.992;23.912;2022-07-29T03:22:15;15.60;99.90
40153;DHT22;26371;56.992;23.912;2022-07-29T03:29:28;15.70;99.90
40153;DHT22;26371;56.992;23.912;2022-07-29T03:32:04;15.70;99.90
40153;DHT22;26371;56.992;23.912;2022-07-29T03:34:35;15.70;99.90
40153;DHT22;26371;56.992;23.912;2022-07-29T03:37:06;15.80;99.90
40153;DHT22;26371;56.992;23.912;2022-07-29T03:47:00;15.80;99.90
40153;DHT22;26371;56.992;23.912;2022-07-29T03:49:31;15.70;99.90
40153;DHT22;26371;56.992;23.912;2022-07-29T03:52:01;15.70;99.90
40153;DHT22;26371;56.992;23.912;2022-07-29T03:59:14;15.70;99.90
40153;DHT22;26371;56.992;23.912;2022-07-29T04:01:44;15.70;99.90
40153;DHT22;26371;56.992;23.912;2022-07-29T04:04:13;15.80;99.90
40153;DHT22;26371;56.992;23.912;2022-07-29T04:06:44;15.90;99.90
40153;DHT22;26371;56.992;23.912;2022-07-29T04:09:14;16.10;99.90
40153;DHT22;26371;56.992;23.912;2022-07-29T04:11:44;16.20;99.90
40153;DHT22;26371;56.992;23.912;2022-07-29T04:14:32;16.30;99.90
40153;DHT22;26371;56.992;23.912;2022-07-29T04:17:02;16.40;99.90
40153;DHT22;26371;56.992;23.912;2022-07-29T04:19:31;16.50;99.90
40153;DHT22;26371;56.992;23.912;2022-07-29T04:22:00;16.60;99.90
40153;DHT22;26371;56.992;23.912;2022-07-29T04:24:29;16.50;99.90
40153;DHT22;26371;56.992;23.912;2022-07-29T04:26:58;16.40;99.90
40153;DHT22;26371;56.992;23.912;2022-07-29T04:29:27;16.30;99.90
40153;DHT22;26371;56.992;23.912;2022-07-29T04:31:57;16.20;99.90
40153;DHT22;26371;56.992;23.912;2022-07-29T04:34:26;16.20;99.90
40153;DHT22;26371;56.992;23.912;2022-07-29T04:36:55;16.10;99.90
40153;DHT22;26371;56.992;23.912;2022-07-29T04:39:24;16.10;99.90
40153;DHT22;26371;56.992;23.912;2022-07-29T04:41:57;16.00;99.90
40153;DHT22;26371;56.992;23.912;2022-07-29T04:44:27;16.10;99.90
40153;DHT22;26371;56.992;23.912;2022-07-29T04:46:58;16.20;99.90
40153;DHT22;26371;56.992;23.912;2022-07-29T04:49:27;16.30;99.90
40153;DHT22;26371;56.992;23.912;2022-07-29T04:51:56;16.30;99.90
40153;DHT22;26371;56.992;23.912;2022-07-29T04:54:25;16.30;99.90
40153;DHT22;26371;56.992;23.912;2022-07-29T04:56:54;16.30;99.90
40153;DHT22;26371;56.992;23.912;2022-07-29T04:59:23;16.30;99.90
40153;DHT22;26371;56.992;23.912;2022-07-29T05:01:54;16.30;99.90
40153;DHT22;26371;56.992;23.912;2022-07-29T05:04:24;16.30;99.90
40153;DHT22;26371;56.992;23.912;2022-07-29T05:06:53;16.40;99.90
40153;DHT22;26371;56.992;23.912;2022-07-29T05:09:22;16.50;99.90
40153;DHT22;26371;56.992;23.912;2022-07-29T05:11:51;16.50;99.90
40153;DHT22;26371;56.992;23.912;2022-07-29T05:14:20;16.50;99.90
40153;DHT22;26371;56.992;23.912;2022-07-29T05:16:49;16.50;99.90
40153;DHT22;26371;56.992;23.912;2022-07-29T05:19:18;16.50;99.90
40153;DHT22;26371;56.992;23.912;2022-07-29T05:21:48;16.40;99.90
40153;DHT22;26371;56.992;23.912;2022-07-29T05:24:17;16.40;99.90
40153;DHT22;26371;56.992;23.912;2022-07-29T05:26:46;16.40;99.90
40153;DHT22;26371;56.992;23.912;2022-07-29T05:29:15;16.50;99.90
40153;DHT22;26371;56.992;23.912;2022-07-29T05:32:05;16.70;99.90
40153;DHT22;26371;56.992;23.912;2022-07-29T05:34:34;16.90;99.90
40153;DHT22;26371;56.992;23.912;2022-07-29T05:39:46;17.30;99.90
40153;DHT22;26371;56.992;23.912;2022-07-29T05:42:24;17.30;99.90
40153;DHT22;26371;56.992;23.912;2022-07-29T05:44:52;17.10;99.90
40153;DHT22;26371;56.992;23.912;2022-07-29T05:47:21;16.90;99.90
40153;DHT22;26371;56.992;23.912;2022-07-29T05:49:50;16.80;99.90
40153;DHT22;26371;56.992;23.912;2022-07-29T05:52:21;16.70;99.90
40153;DHT22;26371;56.992;23.912;2022-07-29T05:54:51;16.70;99.90
40153;DHT22;26371;56.992;23.912;2022-07-29T05:57:19;16.60;99.90
40153;DHT22;26371;56.992;23.912;2022-07-29T05:59:49;16.70;99.90
40153;DHT22;26371;56.992;23.912;2022-07-29T06:02:19;16.70;99.90
40153;DHT22;26371;56.992;23.912;2022-07-29T06:04:48;16.60;99.90
40153;DHT22;26371;56.992;23.912;2022-07-29T06:07:17;16.60;99.90
40153;DHT22;26371;56.992;23.912;2022-07-29T06:09:47;16.60;99.90
40153;DHT22;26371;56.992;23.912;2022-07-29T06:12:16;16.70;99.90
40153;DHT22;26371;56.992;23.912;2022-07-29T06:14:45;16.80;99.90
40153;DHT22;26371;56.992;23.912;2022-07-29T06:17:20;16.90;99.90
40153;DHT22;26371;56.992;23.912;2022-07-29T06:19:48;17.20;99.90
40153;DHT22;26371;56.992;23.912;2022-07-29T06:22:18;17.30;99.90
40153;DHT22;26371;56.992;23.912;2022-07-29T06:24:48;17.40;99.90
40153;DHT22;26371;56.992;23.912;2022-07-29T06:27:17;17.40;99.90
40153;DHT22;26371;56.992;23.912;2022-07-29T06:29:48;17.50;99.90
40153;DHT22;26371;56.992;23.912;2022-07-29T06:32:17;17.50;99.90
40153;DHT22;26371;56.992;23.912;2022-07-29T06:34:49;17.50;99.90
40153;DHT22;26371;56.992;23.912;2022-07-29T06:37:18;17.30;99.90
40153;DHT22;26371;56.992;23.912;2022-07-29T06:39:50;17.30;99.90
40153;DHT22;26371;56.992;23.912;2022-07-29T06:53:11;17.70;99.90
40153;DHT22;26371;56.992;23.912;2022-07-29T06:55:42;17.70;99.90
40153;DHT22;26371;56.992;23.912;2022-07-29T06:58:11;17.60;99.90
40153;DHT22;26371;56.992;23.912;2022-07-29T07:00:41;17.60;99.90
40153;DHT22;26371;56.992;23.912;2022-07-29T07:03:10;17.50;99.90
40153;DHT22;26371;56.992;23.912;2022-07-29T07:05:40;17.50;99.90
40153;DHT22;26371;56.992;23.912;2022-07-29T07:08:08;17.40;99.90
40153;DHT22;26371;56.992;23.912;2022-07-29T07:10:38;17.50;99.90
40153;DHT22;26371;56.992;23.912;2022-07-29T07:13:09;17.50;99.90
40153;DHT22;26371;56.992;23.912;2022-07-29T07:15:39;17.60;99.90
40153;DHT22;26371;56.992;23.912;2022-07-29T07:18:07;17.70;99.90
40153;DHT22;26371;56.992;23.912;2022-07-29T07:20:37;17.70;99.90
40153;DHT22;26371;56.992;23.912;2022-07-29T07:23:06;17.70;99.90
40153;DHT22;26371;56.992;23.912;2022-07-29T07:25:35;17.80;99.90
40153;DHT22;26371;56.992;23.912;2022-07-29T07:28:04;17.80;99.90
40153;DHT22;26371;56.992;23.912;2022-07-29T07:30:35;17.80;99.90
40153;DHT22;26371;56.992;23.912;2022-07-29T07:33:04;17.80;99.90
40153;DHT22;26371;56.992;23.912;2022-07-29T07:35:33;17.70;99.90
40153;DHT22;26371;56.992;23.912;2022-07-29T07:38:02;17.70;99.90
40153;DHT22;26371;56.992;23.912;2022-07-29T07:40:33;17.70;99.90
40153;DHT22;26371;56.992;23.912;2022-07-29T07:43:02;17.80;99.90
40153;DHT22;26371;56.992;23.912;2022-07-29T07:45:31;17.80;99.90
40153;DHT22;26371;56.992;23.912;2022-07-29T07:48:02;17.90;99.90
40153;DHT22;26371;56.992;23.912;2022-07-29T07:50:31;18.00;99.90
40153;DHT22;26371;56.992;23.912;2022-07-29T07:53:01;18.10;99.90
40153;DHT22;26371;56.992;23.912;2022-07-29T07:55:29;18.20;99.90
40153;DHT22;26371;56.992;23.912;2022-07-29T07:58:19;18.10;99.90
40153;DHT22;26371;56.992;23.912;2022-07-29T08:00:47;18.10;99.90
40153;DHT22;26371;56.992;23.912;2022-07-29T08:03:18;18.10;99.90
40153;DHT22;26371;56.992;23.912;2022-07-29T08:05:47;18.20;99.90
40153;DHT22;26371;56.992;23.912;2022-07-29T08:08:18;18.20;99.90
40153;DHT22;26371;56.992;23.912;2022-07-29T08:10:46;18.20;99.90
40153;DHT22;26371;56.992;23.912;2022-07-29T08:13:25;18.20;99.90
40153;DHT22;26371;56.992;23.912;2022-07-29T08:15:56;18.20;99.90
40153;DHT22;26371;56.992;23.912;2022-07-29T08:18:31;18.20;99.90
40153;DHT22;26371;56.992;23.912;2022-07-29T08:21:00;18.20;99.90
40153;DHT22;26371;56.992;23.912;2022-07-29T08:23:29;18.30;99.90
40153;DHT22;26371;56.992;23.912;2022-07-29T08:26:15;18.40;99.90
40153;DHT22;26371;56.992;23.912;2022-07-29T08:28:45;18.40;99.90
40153;DHT22;26371;56.992;23.912;2022-07-29T08:31:17;18.40;99.90
40153;DHT22;26371;56.992;23.912;2022-07-29T08:33:47;18.50;99.90
40153;DHT22;26371;56.992;23.912;2022-07-29T08:36:17;18.50;99.90
40153;DHT22;26371;56.992;23.912;2022-07-29T08:38:48;18.50;99.90
40153;DHT22;26371;56.992;23.912;2022-07-29T08:41:19;18.40;99.90
40153;DHT22;26371;56.992;23.912;2022-07-29T08:43:49;18.40;99.90
40153;DHT22;26371;56.992;23.912;2022-07-29T08:46:18;18.40;99.90
40153;DHT22;26371;56.992;23.912;2022-07-29T08:48:49;18.60;99.90
40153;DHT22;26371;56.992;23.912;2022-07-29T08:51:20;18.60;99.90
40153;DHT22;26371;56.992;23.912;2022-07-29T08:53:50;18.70;98.70
40153;DHT22;26371;56.992;23.912;2022-07-29T08:56:19;18.80;99.50
40153;DHT22;26371;56.992;23.912;2022-07-29T08:58:49;18.90;99.90
40153;DHT22;26371;56.992;23.912;2022-07-29T09:01:22;19.10;99.30
40153;DHT22;26371;56.992;23.912;2022-07-29T09:04:09;19.30;99.80
40153;DHT22;26371;56.992;23.912;2022-07-29T09:06:43;19.50;99.90
40153;DHT22;26371;56.992;23.912;2022-07-29T09:09:13;19.30;98.80
40153;DHT22;26371;56.992;23.912;2022-07-29T09:11:43;19.10;99.00
40153;DHT22;26371;56.992;23.912;2022-07-29T09:14:13;19.00;99.60
40153;DHT22;26371;56.992;23.912;2022-07-29T09:16:51;19.10;99.80
40153;DHT22;26371;56.992;23.912;2022-07-29T09:19:27;19.10;99.10
40153;DHT22;26371;56.992;23.912;2022-07-29T09:21:58;19.10;98.90
40153;DHT22;26371;56.992;23.912;2022-07-29T09:24:36;19.10;98.80
40153;DHT22;26371;56.992;23.912;2022-07-29T09:27:12;19.20;99.00
40153;DHT22;26371;56.992;23.912;2022-07-29T09:29:47;19.40;98.60
40153;DHT22;26371;56.992;23.912;2022-07-29T09:32:16;19.50;98.90
40153;DHT22;26371;56.992;23.912;2022-07-29T09:34:47;19.60;98.50
40153;DHT22;26371;56.992;23.912;2022-07-29T09:37:26;19.70;98.30
40153;DHT22;26371;56.992;23.912;2022-07-29T09:39:56;19.80;98.40
40153;DHT22;26371;56.992;23.912;2022-07-29T09:42:29;19.90;97.70
40153;DHT22;26371;56.992;23.912;2022-07-29T09:45:01;20.00;98.00
40153;DHT22;26371;56.992;23.912;2022-07-29T09:47:41;20.10;98.30
40153;DHT22;26371;56.992;23.912;2022-07-29T09:50:14;20.00;97.50
40153;DHT22;26371;56.992;23.912;2022-07-29T09:52:49;19.80;97.40
40153;DHT22;26371;56.992;23.912;2022-07-29T09:55:19;19.80;97.80
40153;DHT22;26371;56.992;23.912;2022-07-29T09:57:48;19.80;98.10
40153;DHT22;26371;56.992;23.912;2022-07-29T10:00:18;19.90;97.80
40153;DHT22;26371;56.992;23.912;2022-07-29T10:02:51;20.00;98.20
40153;DHT22;26371;56.992;23.912;2022-07-29T10:05:23;20.10;98.10
40153;DHT22;26371;56.992;23.912;2022-07-29T10:07:54;20.20;97.10
40153;DHT22;26371;56.992;23.912;2022-07-29T10:10:26;20.10;97.70
40153;DHT22;26371;56.992;23.912;2022-07-29T10:12:56;20.10;97.80
40153;DHT22;26371;56.992;23.912;2022-07-29T10:15:33;20.00;98.00
40153;DHT22;26371;56.992;23.912;2022-07-29T10:18:04;19.90;97.60
40153;DHT22;26371;56.992;23.912;2022-07-29T10:20:36;20.00;97.50
40153;DHT22;26371;56.992;23.912;2022-07-29T10:23:06;20.10;97.60
40153;DHT22;26371;56.992;23.912;2022-07-29T10:25:35;20.10;97.80
40153;DHT22;26371;56.992;23.912;2022-07-29T10:28:04;20.10;97.80
40153;DHT22;26371;56.992;23.912;2022-07-29T10:30:34;20.20;97.60
40153;DHT22;26371;56.992;23.912;2022-07-29T10:33:26;20.30;97.40
40153;DHT22;26371;56.992;23.912;2022-07-29T10:36:25;20.10;97.20
40153;DHT22;26371;56.992;23.912;2022-07-29T10:39:03;20.20;98.00
40153;DHT22;26371;56.992;23.912;2022-07-29T10:41:52;20.30;98.10
40153;DHT22;26371;56.992;23.912;2022-07-29T10:44:25;20.40;97.90
40153;DHT22;26371;56.992;23.912;2022-07-29T10:46:55;20.70;97.70
40153;DHT22;26371;56.992;23.912;2022-07-29T10:49:26;20.80;97.90
40153;DHT22;26371;56.992;23.912;2022-07-29T10:52:04;20.90;97.70
40153;DHT22;26371;56.992;23.912;2022-07-29T10:54:44;20.80;97.20
40153;DHT22;26371;56.992;23.912;2022-07-29T10:57:16;20.70;96.90
40153;DHT22;26371;56.992;23.912;2022-07-29T10:59:48;20.60;97.20
40153;DHT22;26371;56.992;23.912;2022-07-29T11:02:44;20.70;97.70
40153;DHT22;26371;56.992;23.912;2022-07-29T11:05:17;20.50;96.60
40153;DHT22;26371;56.992;23.912;2022-07-29T11:08:23;20.30;97.50
40153;DHT22;26371;56.992;23.912;2022-07-29T11:14:10;20.40;97.50
40153;DHT22;26371;56.992;23.912;2022-07-29T11:16:58;20.30;97.70
40153;DHT22;26371;56.992;23.912;2022-07-29T11:19:29;20.40;98.20
40153;DHT22;26371;56.992;23.912;2022-07-29T11:21:59;20.60;97.80
40153;DHT22;26371;56.992;23.912;2022-07-29T11:24:30;20.70;97.70
40153;DHT22;26371;56.992;23.912;2022-07-29T11:27:13;20.80;97.50
40153;DHT22;26371;56.992;23.912;2022-07-29T11:29:51;20.90;96.90
40153;DHT22;26371;56.992;23.912;2022-07-29T11:32:22;20.90;96.80
40153;DHT22;26371;56.992;23.912;2022-07-29T11:35:15;21.10;97.50
40153;DHT22;26371;56.992;23.912;2022-07-29T11:38:23;21.00;96.10
40153;DHT22;26371;56.992;23.912;2022-07-29T11:41:24;20.60;96.50
40153;DHT22;26371;56.992;23.912;2022-07-29T11:43:56;20.60;97.10
40153;DHT22;26371;56.992;23.912;2022-07-29T11:46:45;20.80;97.00
40153;DHT22;26371;56.992;23.912;2022-07-29T11:49:19;20.90;97.10
40153;DHT22;26371;56.992;23.912;2022-07-29T11:51:59;20.80;95.60
40153;DHT22;26371;56.992;23.912;2022-07-29T11:54:33;20.70;95.80
40153;DHT22;26371;56.992;23.912;2022-07-29T11:57:24;20.80;97.30
40153;DHT22;26371;56.992;23.912;2022-07-29T12:00:05;20.80;97.30
40153;DHT22;26371;56.992;23.912;2022-07-29T12:02:41;21.00;97.10
40153;DHT22;26371;56.992;23.912;2022-07-29T12:05:15;21.20;97.70
40153;DHT22;26371;56.992;23.912;2022-07-29T12:08:11;21.30;96.90
40153;DHT22;26371;56.992;23.912;2022-07-29T12:10:42;21.30;96.40
40153;DHT22;26371;56.992;23.912;2022-07-29T12:13:16;21.20;96.50
40153;DHT22;26371;56.992;23.912;2022-07-29T12:15:52;21.00;96.70
40153;DHT22;26371;56.992;23.912;2022-07-29T12:18:21;20.70;96.80
40153;DHT22;26371;56.992;23.912;2022-07-29T12:20:57;20.50;97.10
40153;DHT22;26371;56.992;23.912;2022-07-29T12:23:30;20.40;97.00
40153;DHT22;26371;56.992;23.912;2022-07-29T12:26:04;20.30;96.60
40153;DHT22;26371;56.992;23.912;2022-07-29T12:28:38;20.20;97.00
40153;DHT22;26371;56.992;23.912;2022-07-29T12:31:13;20.30;97.40
40153;DHT22;26371;56.992;23.912;2022-07-29T12:34:03;20.60;97.60
40153;DHT22;26371;56.992;23.912;2022-07-29T12:36:33;20.70;97.40
40153;DHT22;26371;56.992;23.912;2022-07-29T12:39:03;20.60;97.30
40153;DHT22;26371;56.992;23.912;2022-07-29T12:41:32;20.70;97.50
40153;DHT22;26371;56.992;23.912;2022-07-29T12:44:04;20.80;98.50
40153;DHT22;26371;56.992;23.912;2022-07-29T12:46:33;20.90;97.70
40153;DHT22;26371;56.992;23.912;2022-07-29T12:49:03;20.80;97.50
40153;DHT22;26371;56.992;23.912;2022-07-29T12:51:33;20.80;97.20
40153;DHT22;26371;56.992;23.912;2022-07-29T12:54:06;20.60;97.20
40153;DHT22;26371;56.992;23.912;2022-07-29T12:56:38;20.60;97.30
40153;DHT22;26371;56.992;23.912;2022-07-29T12:59:17;20.50;96.50
40153;DHT22;26371;56.992;23.912;2022-07-29T13:01:47;20.40;96.10
40153;DHT22;26371;56.992;23.912;2022-07-29T13:04:26;20.30;96.30
40153;DHT22;26371;56.992;23.912;2022-07-29T13:06:59;20.20;96.50
40153;DHT22;26371;56.992;23.912;2022-07-29T13:09:38;20.20;97.10
40153;DHT22;26371;56.992;23.912;2022-07-29T13:12:09;20.30;97.00
40153;DHT22;26371;56.992;23.912;2022-07-29T13:14:41;20.20;96.40
40153;DHT22;26371;56.992;23.912;2022-07-29T13:17:12;20.20;96.50
40153;DHT22;26371;56.992;23.912;2022-07-29T13:19:45;20.10;96.90
40153;DHT22;26371;56.992;23.912;2022-07-29T13:22:17;19.90;96.30
40153;DHT22;26371;56.992;23.912;2022-07-29T13:24:48;20.00;96.30
40153;DHT22;26371;56.992;23.912;2022-07-29T13:27:19;20.00;97.20
40153;DHT22;26371;56.992;23.912;2022-07-29T13:29:50;20.10;97.50
40153;DHT22;26371;56.992;23.912;2022-07-29T13:32:20;20.20;97.00
40153;DHT22;26371;56.992;23.912;2022-07-29T13:34:55;20.20;96.80
40153;DHT22;26371;56.992;23.912;2022-07-29T13:37:24;20.10;97.40
40153;DHT22;26371;56.992;23.912;2022-07-29T13:39:57;20.20;96.70
40153;DHT22;26371;56.992;23.912;2022-07-29T13:42:26;20.20;97.30
40153;DHT22;26371;56.992;23.912;2022-07-29T13:44:56;20.30;96.90
40153;DHT22;26371;56.992;23.912;2022-07-29T13:47:26;20.40;97.30
40153;DHT22;26371;56.992;23.912;2022-07-29T13:49:59;20.40;97.50
40153;DHT22;26371;56.992;23.912;2022-07-29T13:52:29;20.50;96.80
40153;DHT22;26371;56.992;23.912;2022-07-29T13:54:58;20.50;96.80
40153;DHT22;26371;56.992;23.912;2022-07-29T13:57:27;20.50;97.10
40153;DHT22;26371;56.992;23.912;2022-07-29T13:59:58;20.40;96.90
40153;DHT22;26371;56.992;23.912;2022-07-29T14:02:34;20.30;96.70
40153;DHT22;26371;56.992;23.912;2022-07-29T14:05:06;20.30;96.60
40153;DHT22;26371;56.992;23.912;2022-07-29T14:07:35;20.20;96.30
40153;DHT22;26371;56.992;23.912;2022-07-29T14:10:06;20.10;96.70
40153;DHT22;26371;56.992;23.912;2022-07-29T14:12:36;20.20;97.10
40153;DHT22;26371;56.992;23.912;2022-07-29T14:15:08;20.20;96.90
40153;DHT22;26371;56.992;23.912;2022-07-29T14:17:37;20.20;97.10
40153;DHT22;26371;56.992;23.912;2022-07-29T14:20:06;20.30;96.60
40153;DHT22;26371;56.992;23.912;2022-07-29T14:22:36;20.20;96.60
40153;DHT22;26371;56.992;23.912;2022-07-29T14:25:11;20.30;96.70
40153;DHT22;26371;56.992;23.912;2022-07-29T14:27:41;20.30;96.80
40153;DHT22;26371;56.992;23.912;2022-07-29T14:30:13;20.30;96.70
40153;DHT22;26371;56.992;23.912;2022-07-29T14:32:43;20.30;96.70
40153;DHT22;26371;56.992;23.912;2022-07-29T14:35:12;20.40;97.00
40153;DHT22;26371;56.992;23.912;2022-07-29T14:37:41;20.40;96.40
40153;DHT22;26371;56.992;23.912;2022-07-29T14:40:11;20.50;96.50
40153;DHT22;26371;56.992;23.912;2022-07-29T14:42:40;20.70;96.80
40153;DHT22;26371;56.992;23.912;2022-07-29T14:45:09;21.00;96.60
40153;DHT22;26371;56.992;23.912;2022-07-29T14:47:40;21.10;95.70
40153;DHT22;26371;56.992;23.912;2022-07-29T14:50:10;21.00;94.80
40153;DHT22;26371;56.992;23.912;2022-07-29T14:52:39;21.00;95.50
40153;DHT22;26371;56.992;23.912;2022-07-29T14:55:08;21.10;95.10
40153;DHT22;26371;56.992;23.912;2022-07-29T14:57:47;21.30;95.30
40153;DHT22;26371;56.992;23.912;2022-07-29T15:00:16;21.60;95.30
40153;DHT22;26371;56.992;23.912;2022-07-29T15:05:29;22.10;94.50
40153;DHT22;26371;56.992;23.912;2022-07-29T15:07:59;22.10;94.60
40153;DHT22;26371;56.992;23.912;2022-07-29T15:10:28;22.20;94.90
40153;DHT22;26371;56.992;23.912;2022-07-29T15:12:57;22.50;95.00
40153;DHT22;26371;56.992;23.912;2022-07-29T15:15:25;22.50;94.90
40153;DHT22;26371;56.992;23.912;2022-07-29T15:17:56;22.50;93.70
40153;DHT22;26371;56.992;23.912;2022-07-29T15:20:25;22.20;94.20
40153;DHT22;26371;56.992;23.912;2022-07-29T15:22:54;22.20;94.50
40153;DHT22;26371;56.992;23.912;2022-07-29T15:25:26;22.10;94.40
40153;DHT22;26371;56.992;23.912;2022-07-29T15:27:55;21.90;94.80
40153;DHT22;26371;56.992;23.912;2022-07-29T15:30:29;21.90;94.70
40153;DHT22;26371;56.992;23.912;2022-07-29T15:33:02;21.80;94.40
40153;DHT22;26371;56.992;23.912;2022-07-29T15:35:31;21.60;94.30
40153;DHT22;26371;56.992;23.912;2022-07-29T15:38:07;21.50;94.60
40153;DHT22;26371;56.992;23.912;2022-07-29T15:40:37;21.40;94.90
40153;DHT22;26371;56.992;23.912;2022-07-29T15:43:07;21.20;95.50
40153;DHT22;26371;56.992;23.912;2022-07-29T15:45:36;21.10;95.60
40153;DHT22;26371;56.992;23.912;2022-07-29T15:48:09;21.10;95.80
40153;DHT22;26371;56.992;23.912;2022-07-29T15:50:41;21.20;95.40
40153;DHT22;26371;56.992;23.912;2022-07-29T15:53:13;21.30;95.40
40153;DHT22;26371;56.992;23.912;2022-07-29T15:55:43;21.30;95.00
40153;DHT22;26371;56.992;23.912;2022-07-29T15:58:12;21.20;95.30
40153;DHT22;26371;56.992;23.912;2022-07-29T16:00:41;21.30;95.50
40153;DHT22;26371;56.992;23.912;2022-07-29T16:03:12;21.20;95.60
40153;DHT22;26371;56.992;23.912;2022-07-29T16:05:41;21.20;95.50
40153;DHT22;26371;56.992;23.912;2022-07-29T16:08:10;21.20;95.20
40153;DHT22;26371;56.992;23.912;2022-07-29T16:10:39;21.00;95.40
40153;DHT22;26371;56.992;23.912;2022-07-29T16:13:09;20.80;95.40
40153;DHT22;26371;56.992;23.912;2022-07-29T16:15:45;20.50;95.30
40153;DHT22;26371;56.992;23.912;2022-07-29T16:18:30;20.30;95.40
40153;DHT22;26371;56.992;23.912;2022-07-29T16:20:59;20.10;96.00
40153;DHT22;26371;56.992;23.912;2022-07-29T16:33:27;19.50;96.00
40153;DHT22;26371;56.992;23.912;2022-07-29T16:36:18;19.50;96.20
40153;DHT22;26371;56.992;23.912;2022-07-29T16:38:47;19.40;96.60
40153;DHT22;26371;56.992;23.912;2022-07-29T16:41:16;19.30;96.80
40153;DHT22;26371;56.992;23.912;2022-07-29T16:43:44;19.20;96.50
40153;DHT22;26371;56.992;23.912;2022-07-29T16:46:14;19.20;96.80
40153;DHT22;26371;56.992;23.912;2022-07-29T16:48:47;19.00;97.00